createdAt,value
2023-03-06T00:00:51.692Z,3.42
2023-03-06T00:03:19.781Z,3.42
2023-03-06T00:05:46.842Z,3.41
2023-03-06T00:08:14.099Z,3.41
2023-03-06T00:10:40.987Z,3.39
2023-03-06T00:13:12.823Z,3.39
2023-03-06T00:15:40.152Z,3.39
2023-03-06T00:18:07.454Z,3.39
2023-03-06T00:20:35.109Z,3.39
2023-03-06T00:23:02.217Z,3.38
2023-03-06T00:25:29.454Z,3.38
2023-03-06T00:27:56.548Z,3.39
2023-03-06T00:30:24.427Z,3.40
2023-03-06T00:32:52.739Z,3.40
2023-03-06T00:35:19.849Z,3.40
2023-03-06T00:37:46.820Z,3.39
2023-03-06T00:40:19.210Z,3.38
2023-03-06T00:42:47.115Z,3.35
2023-03-06T00:45:14.100Z,3.33
2023-03-06T00:47:41.377Z,3.32
2023-03-06T00:50:10.204Z,3.30
2023-03-06T00:52:37.400Z,3.27
2023-03-06T00:55:05.611Z,3.22
2023-03-06T00:57:32.410Z,3.20
2023-03-06T00:59:59.199Z,3.16
2023-03-06T01:02:26.103Z,3.15
2023-03-06T01:04:54.906Z,3.13
2023-03-06T01:07:22.144Z,3.09
2023-03-06T01:09:50.443Z,3.03
2023-03-06T01:12:17.312Z,2.98
2023-03-06T01:14:44.832Z,2.94
2023-03-06T01:17:11.658Z,2.90
2023-03-06T01:19:38.421Z,2.84
2023-03-06T01:22:05.201Z,2.78
2023-03-06T01:24:32.091Z,2.76
2023-03-06T01:26:58.855Z,2.73
2023-03-06T01:29:25.768Z,2.71
2023-03-06T01:31:52.886Z,2.68
2023-03-06T01:34:19.722Z,2.65
2023-03-06T01:36:46.554Z,2.61
2023-03-06T01:39:13.356Z,2.59
2023-03-06T01:41:40.119Z,2.58
2023-03-06T01:44:07.075Z,2.58
2023-03-06T01:46:41.270Z,2.58
2023-03-06T01:49:13.984Z,2.56
2023-03-06T01:52:17.043Z,2.54
2023-03-06T01:54:59.154Z,2.54
2023-03-06T01:57:33.037Z,2.52
2023-03-06T02:00:14.049Z,2.49
2023-03-06T02:02:47.244Z,2.46
2023-03-06T02:05:14.147Z,2.45
2023-03-06T02:07:43.847Z,2.43
2023-03-06T02:10:16.519Z,2.41
2023-03-06T02:12:45.982Z,2.38
2023-03-06T02:15:16.195Z,2.35
2023-03-06T02:17:45.653Z,2.33
2023-03-06T02:20:30.576Z,2.30
2023-03-06T02:23:08.247Z,2.26
2023-03-06T02:25:42.700Z,2.23
2023-03-06T02:28:15.212Z,2.21
2023-03-06T02:30:44.014Z,2.18
2023-03-06T02:33:18.817Z,2.16
2023-03-06T02:36:01.972Z,2.13
2023-03-06T02:38:50.564Z,2.10
2023-03-06T02:41:17.939Z,2.07
2023-03-06T02:44:06.079Z,2.02
2023-03-06T02:46:32.903Z,2.00
2023-03-06T02:48:59.710Z,1.98
2023-03-06T02:51:26.547Z,1.95
2023-03-06T02:53:53.335Z,1.91
2023-03-06T02:56:22.279Z,1.87
2023-03-06T02:58:49.113Z,1.83
2023-03-06T03:01:15.956Z,1.79
2023-03-06T03:03:43.922Z,1.76
2023-03-06T03:06:10.963Z,1.73
2023-03-06T03:08:37.824Z,1.72
2023-03-06T03:11:05.653Z,1.70
2023-03-06T03:13:38.173Z,1.68
2023-03-06T03:16:14.597Z,1.67
2023-03-06T03:18:47.268Z,1.62
2023-03-06T03:21:15.271Z,1.55
2023-03-06T03:23:42.167Z,1.51
2023-03-06T03:26:18.639Z,1.45
2023-03-06T03:28:50.375Z,1.41
2023-03-06T03:31:18.754Z,1.37
2023-03-06T03:33:45.654Z,1.34
2023-03-06T03:36:12.788Z,1.31
2023-03-06T03:38:41.792Z,1.26
2023-03-06T03:41:08.606Z,1.20
2023-03-06T03:43:35.397Z,1.15
2023-03-06T03:46:02.275Z,1.10
2023-03-06T03:48:29.113Z,1.06
2023-03-06T03:51:04.964Z,1.01
2023-03-06T03:53:32.606Z,0.98
2023-03-06T03:55:59.474Z,0.92
2023-03-06T03:58:26.646Z,0.86
2023-03-06T04:00:53.486Z,0.83
2023-03-06T04:03:20.675Z,0.81
2023-03-06T04:05:47.489Z,0.77
2023-03-06T04:08:15.487Z,0.73
2023-03-06T04:10:44.058Z,0.70
2023-03-06T04:13:11.572Z,0.65
2023-03-06T04:15:41.527Z,0.62
2023-03-06T04:18:08.995Z,0.57
2023-03-06T04:20:36.027Z,0.52
2023-03-06T04:23:02.971Z,0.47
2023-03-06T04:25:29.794Z,0.44
2023-03-06T04:27:58.039Z,0.43
2023-03-06T04:30:25.321Z,0.43
2023-03-06T04:32:52.249Z,0.41
2023-03-06T04:35:19.235Z,0.38
2023-03-06T04:37:52.999Z,0.34
2023-03-06T04:40:29.102Z,0.29
2023-03-06T04:42:58.786Z,0.25
2023-03-06T04:45:27.378Z,0.21
2023-03-06T04:47:54.933Z,0.19
2023-03-06T04:50:24.317Z,0.17
2023-03-06T04:52:51.575Z,0.16
2023-03-06T04:55:18.721Z,0.14
2023-03-06T04:57:46.733Z,0.10
2023-03-06T05:00:23.599Z,0.07
2023-03-06T05:02:51.131Z,0.06
2023-03-06T05:05:18.144Z,0.04
2023-03-06T05:07:45.052Z,0.04
2023-03-06T05:10:15.369Z,0.04
2023-03-06T05:12:42.675Z,0.02
2023-03-06T05:15:11.381Z,0.01
2023-03-06T05:17:38.853Z,0.00
2023-03-06T05:20:08.966Z,0.00
2023-03-06T05:22:36.258Z,0.03
2023-03-06T05:25:04.297Z,0.06
2023-03-06T05:27:31.162Z,0.08
2023-03-06T05:29:58.038Z,0.10
2023-03-06T05:32:24.981Z,0.15
2023-03-06T05:34:51.914Z,0.19
2023-03-06T05:37:18.732Z,0.20
2023-03-06T05:39:45.947Z,0.21
2023-03-06T05:42:12.732Z,0.25
2023-03-06T05:44:41.058Z,0.26
2023-03-06T05:47:08.468Z,0.25
2023-03-06T05:49:36.148Z,0.21
2023-03-06T05:52:05.191Z,0.18
2023-03-06T05:54:33.774Z,0.17
2023-03-06T05:57:01.041Z,0.18
2023-03-06T05:59:28.499Z,0.18
2023-03-06T06:01:55.775Z,0.18
2023-03-06T06:04:25.561Z,0.20
2023-03-06T06:06:58.771Z,0.21
2023-03-06T06:09:26.092Z,0.24
2023-03-06T06:11:56.125Z,0.24
2023-03-06T06:14:22.960Z,0.29
2023-03-06T06:16:54.748Z,0.33
2023-03-06T06:19:22.664Z,0.35
2023-03-06T06:21:53.262Z,0.38
2023-03-06T06:24:23.936Z,0.43
2023-03-06T06:26:54.200Z,0.50
2023-03-06T06:29:22.880Z,0.58
2023-03-06T06:31:50.155Z,0.69
2023-03-06T06:34:18.228Z,0.77
2023-03-06T06:36:45.187Z,0.86
2023-03-06T06:39:16.106Z,0.96
2023-03-06T06:41:59.363Z,1.06
2023-03-06T06:44:30.721Z,1.16
2023-03-06T06:49:49.942Z,1.39
2023-03-06T06:52:18.116Z,1.49
2023-03-06T06:54:45.389Z,1.59
2023-03-06T06:57:12.249Z,1.71
2023-03-06T06:59:39.054Z,1.81
2023-03-06T07:02:06.656Z,1.90
2023-03-06T07:04:33.784Z,2.01
2023-03-06T07:07:00.562Z,2.12
2023-03-06T07:09:29.590Z,2.21
2023-03-06T07:11:56.949Z,2.28
2023-03-06T07:14:24.117Z,2.36
2023-03-06T07:16:51.226Z,2.44
2023-03-06T07:19:18.036Z,2.53
2023-03-06T07:21:44.821Z,2.61
2023-03-06T07:24:11.627Z,2.68
2023-03-06T07:26:38.410Z,2.75
2023-03-06T07:29:05.350Z,2.80
2023-03-06T07:31:32.211Z,2.83
2023-03-06T07:33:58.997Z,2.85
2023-03-06T07:36:25.840Z,2.90
2023-03-06T07:38:52.633Z,2.97
2023-03-06T07:41:22.147Z,3.04
2023-03-06T07:43:49.882Z,3.14
2023-03-06T07:46:17.378Z,3.25
2023-03-06T07:48:44.638Z,3.34
2023-03-06T07:51:20.802Z,3.41
2023-03-06T07:53:49.233Z,3.48
2023-03-06T07:56:16.223Z,3.54
2023-03-06T07:58:45.677Z,3.62
2023-03-06T08:01:19.226Z,3.70
2023-03-06T08:03:48.441Z,3.78
2023-03-06T08:06:19.431Z,3.84
2023-03-06T08:08:48.062Z,3.89
2023-03-06T08:11:18.069Z,3.95
2023-03-06T08:13:46.151Z,4.01
2023-03-06T08:16:12.997Z,4.06
2023-03-06T08:18:40.032Z,4.12
2023-03-06T08:21:16.811Z,4.20
2023-03-06T08:23:44.330Z,4.26
2023-03-06T08:26:18.458Z,4.30
2023-03-06T08:28:45.782Z,4.34
2023-03-06T08:31:42.961Z,4.38
2023-03-06T08:34:17.050Z,4.50
2023-03-06T08:36:44.012Z,4.59
2023-03-06T08:39:11.138Z,4.70
2023-03-06T08:41:38.313Z,4.76
2023-03-06T08:44:05.834Z,4.75
2023-03-06T08:46:34.035Z,4.72
2023-03-06T08:49:01.886Z,4.78
2023-03-06T08:51:29.031Z,4.90
2023-03-06T08:53:57.319Z,4.96
2023-03-06T08:56:28.656Z,4.98
2023-03-06T08:58:57.949Z,5.00
2023-03-06T09:01:31.579Z,5.03
2023-03-06T09:04:01.459Z,5.07
2023-03-06T09:06:32.908Z,5.10
2023-03-06T09:09:00.161Z,5.14
2023-03-06T09:11:28.286Z,5.17
2023-03-06T09:13:56.999Z,5.21
2023-03-06T09:16:24.719Z,5.21
2023-03-06T09:18:53.319Z,5.23
2023-03-06T09:21:21.702Z,5.30
2023-03-06T09:23:48.812Z,5.36
2023-03-06T09:26:15.641Z,5.39
2023-03-06T09:28:42.475Z,5.42
2023-03-06T09:31:13.255Z,5.47
2023-03-06T09:33:40.082Z,5.53
2023-03-06T09:36:08.354Z,5.57
2023-03-06T09:38:35.251Z,5.57
2023-03-06T09:41:22.241Z,5.57
2023-03-06T09:43:53.445Z,5.60
2023-03-06T09:46:45.531Z,5.66
2023-03-06T09:49:37.709Z,5.74
2023-03-06T09:52:31.034Z,5.78
2023-03-06T09:55:16.405Z,5.85
2023-03-06T09:57:59.920Z,5.90
2023-03-06T10:00:48.555Z,5.93
2023-03-06T10:03:29.126Z,6.00
2023-03-06T10:06:09.688Z,6.08
2023-03-06T10:09:01.547Z,6.11
2023-03-06T10:11:42.453Z,6.11
2023-03-06T10:14:34.443Z,6.20
2023-03-06T10:17:02.048Z,6.35
2023-03-06T10:19:41.520Z,6.50
2023-03-06T10:22:32.313Z,6.62
2023-03-06T10:25:42.202Z,6.75
2023-03-06T10:28:20.399Z,6.86
2023-03-06T10:30:53.332Z,6.94
2023-03-06T10:33:22.283Z,6.99
2023-03-06T10:35:52.735Z,7.07
2023-03-06T10:38:36.945Z,7.13
2023-03-06T10:41:13.006Z,7.17
2023-03-06T10:44:04.730Z,7.16
2023-03-06T10:46:39.084Z,7.21
2023-03-06T10:49:30.004Z,7.27
2023-03-06T10:52:09.030Z,7.39
2023-03-06T10:54:39.494Z,7.50
2023-03-06T10:57:29.191Z,7.59
2023-03-06T11:00:23.838Z,7.62
2023-03-06T11:03:19.986Z,7.63
2023-03-06T11:06:34.381Z,7.65
2023-03-06T11:09:36.755Z,7.72
2023-03-06T11:12:34.210Z,7.80
2023-03-06T11:15:23.066Z,7.86
2023-03-06T11:18:07.616Z,7.88
2023-03-06T11:20:53.147Z,7.87
2023-03-06T11:23:45.900Z,7.80
2023-03-06T11:26:28.416Z,7.81
2023-03-06T11:29:39.920Z,7.83
2023-03-06T11:32:11.943Z,7.80
2023-03-06T11:35:17.921Z,7.75
2023-03-06T11:38:04.214Z,7.71
2023-03-06T11:40:48.981Z,7.72
2023-03-06T11:43:24.614Z,7.73
2023-03-06T11:46:23.963Z,7.70
2023-03-06T11:49:06.535Z,7.65
2023-03-06T11:51:40.890Z,7.58
2023-03-06T11:54:11.803Z,7.55
2023-03-06T11:56:59.217Z,7.57
2023-03-06T11:59:47.687Z,7.55
2023-03-06T12:02:23.444Z,7.54
2023-03-06T12:05:22.338Z,7.56
2023-03-06T12:08:19.083Z,7.61
2023-03-06T12:11:19.024Z,7.67
2023-03-06T12:14:04.195Z,7.68
2023-03-06T12:16:50.573Z,7.65
2023-03-06T12:19:38.520Z,7.62
2023-03-06T12:22:26.074Z,7.59
2023-03-06T12:24:58.883Z,7.63
2023-03-06T12:27:47.257Z,7.69
2023-03-06T12:30:39.464Z,7.77
2023-03-06T12:33:19.889Z,7.81
2023-03-06T12:36:10.113Z,7.78
2023-03-06T12:38:58.226Z,7.71
2023-03-06T12:41:32.207Z,7.67
2023-03-06T12:44:35.745Z,7.64
2023-03-06T12:47:09.407Z,7.56
2023-03-06T12:49:41.488Z,7.52
2023-03-06T12:52:21.619Z,7.47
2023-03-06T12:54:53.083Z,7.45
2023-03-06T12:57:23.485Z,7.43
2023-03-06T12:59:52.354Z,7.46
2023-03-06T13:02:52.773Z,7.48
2023-03-06T13:06:27.223Z,7.48
2023-03-06T13:09:19.715Z,7.49
2023-03-06T13:12:14.421Z,7.51
2023-03-06T13:14:48.649Z,7.51
2023-03-06T13:17:23.927Z,7.51
2023-03-06T13:20:12.690Z,7.50
2023-03-06T13:22:46.746Z,7.50
2023-03-06T13:25:16.628Z,7.49
2023-03-06T13:27:52.403Z,7.47
2023-03-06T13:30:35.623Z,7.45
2023-03-06T13:33:29.223Z,7.40
2023-03-06T13:35:58.170Z,7.38
2023-03-06T13:38:58.171Z,7.36
2023-03-06T13:41:30.997Z,7.32
2023-03-06T13:44:01.902Z,7.28
2023-03-06T13:46:36.030Z,7.26
2023-03-06T13:49:22.411Z,7.27
2023-03-06T13:51:52.022Z,7.29
2023-03-06T13:55:08.835Z,7.32
2023-03-06T13:57:51.737Z,7.32
2023-03-06T14:00:56.848Z,7.34
2023-03-06T14:03:41.896Z,7.36
2023-03-06T14:06:33.719Z,7.38
2023-03-06T14:09:11.222Z,7.39
2023-03-06T14:11:45.353Z,7.41
2023-03-06T14:14:12.393Z,7.41
2023-03-06T14:16:49.806Z,7.42
2023-03-06T14:19:18.333Z,7.45
2023-03-06T14:21:55.735Z,7.45
2023-03-06T14:24:37.247Z,7.44
2023-03-06T14:27:04.293Z,7.39
2023-03-06T14:29:33.112Z,7.36
2023-03-06T14:32:01.419Z,7.34
2023-03-06T14:34:45.476Z,7.33
2023-03-06T14:37:31.640Z,7.34
2023-03-06T14:39:58.527Z,7.34
2023-03-06T14:42:29.174Z,7.35
2023-03-06T14:45:04.766Z,7.39
2023-03-06T14:47:35.508Z,7.42
2023-03-06T14:50:34.733Z,7.42
2023-03-06T14:53:30.979Z,7.42
2023-03-06T14:56:06.409Z,7.40
2023-03-06T14:58:44.012Z,7.37
2023-03-06T15:01:12.884Z,7.35
2023-03-06T15:03:49.167Z,7.34
2023-03-06T15:06:20.731Z,7.32
2023-03-06T15:09:15.053Z,7.31
2023-03-06T15:11:54.154Z,7.33
2023-03-06T15:14:28.124Z,7.33
2023-03-06T15:16:54.900Z,7.32
2023-03-06T15:19:22.644Z,7.30
2023-03-06T15:21:51.692Z,7.27
2023-03-06T15:24:36.097Z,7.25
2023-03-06T15:27:06.474Z,7.20
2023-03-06T15:29:38.270Z,7.16
2023-03-06T15:32:35.150Z,7.12
2023-03-06T15:35:51.802Z,7.09
2023-03-06T15:38:38.929Z,7.04
2023-03-06T15:41:27.829Z,7.02
2023-03-06T15:43:56.735Z,6.99
2023-03-06T15:46:23.658Z,6.95
2023-03-06T15:49:04.304Z,6.93
2023-03-06T15:51:32.735Z,6.89
2023-03-06T15:54:12.317Z,6.86
2023-03-06T15:56:43.963Z,6.82
2023-03-06T15:59:30.223Z,6.79
2023-03-06T16:02:02.751Z,6.75
2023-03-06T16:04:29.795Z,6.72
2023-03-06T16:06:56.544Z,6.69
2023-03-06T16:09:23.285Z,6.66
2023-03-06T16:11:50.122Z,6.63
2023-03-06T16:14:23.136Z,6.61
2023-03-06T16:16:53.240Z,6.59
2023-03-06T16:19:26.881Z,6.56
2023-03-06T16:21:56.076Z,6.52
2023-03-06T16:24:25.446Z,6.48
2023-03-06T16:26:54.334Z,6.45
2023-03-06T16:29:24.981Z,6.42
2023-03-06T16:31:54.380Z,6.39
2023-03-06T16:34:21.502Z,6.36
2023-03-06T16:36:50.018Z,6.32
2023-03-06T16:39:21.348Z,6.29
2023-03-06T16:41:51.467Z,6.26
2023-03-06T16:44:19.513Z,6.22
2023-03-06T16:46:48.670Z,6.19
2023-03-06T16:49:25.857Z,6.17
2023-03-06T16:51:53.471Z,6.14
2023-03-06T16:54:22.583Z,6.10
2023-03-06T16:56:49.378Z,6.07
2023-03-06T16:59:16.188Z,6.02
2023-03-06T17:01:43.403Z,5.99
2023-03-06T17:04:10.873Z,5.95
2023-03-06T17:06:38.336Z,5.92
2023-03-06T17:09:05.306Z,5.88
2023-03-06T17:11:32.132Z,5.85
2023-03-06T17:13:59.604Z,5.82
2023-03-06T17:16:26.398Z,5.80
2023-03-06T17:18:54.334Z,5.77
2023-03-06T17:21:21.191Z,5.73
2023-03-06T17:23:48.009Z,5.70
2023-03-06T17:26:18.198Z,5.66
2023-03-06T17:28:46.234Z,5.64
2023-03-06T17:31:18.653Z,5.62
2023-03-06T17:33:45.762Z,5.58
2023-03-06T17:36:13.880Z,5.53
2023-03-06T17:38:41.760Z,5.50
2023-03-06T17:41:11.226Z,5.48
2023-03-06T17:43:39.152Z,5.46
2023-03-06T17:46:12.547Z,5.45
2023-03-06T17:48:39.612Z,5.42
2023-03-06T17:51:07.084Z,5.40
2023-03-06T17:53:35.031Z,5.39
2023-03-06T17:56:08.972Z,5.37
2023-03-06T17:58:35.739Z,5.33
2023-03-06T18:01:18.530Z,5.31
2023-03-06T18:03:48.792Z,5.28
2023-03-06T18:06:17.790Z,5.26
2023-03-06T18:08:45.328Z,5.24
2023-03-06T18:11:12.809Z,5.20
2023-03-06T18:13:42.648Z,5.16
2023-03-06T18:16:13.558Z,5.14
2023-03-06T18:18:40.442Z,5.13
2023-03-06T18:21:13.829Z,5.10
2023-03-06T18:23:40.997Z,5.06
2023-03-06T18:26:21.537Z,5.04
2023-03-06T18:28:57.090Z,5.02
2023-03-06T18:31:27.945Z,5.00
2023-03-06T18:33:58.342Z,4.99
2023-03-06T18:36:28.652Z,4.97
2023-03-06T18:38:56.520Z,4.95
2023-03-06T18:41:23.634Z,4.94
2023-03-06T18:43:55.454Z,4.94
2023-03-06T18:46:23.731Z,4.94
2023-03-06T18:48:50.870Z,4.93
2023-03-06T18:51:19.389Z,4.92
2023-03-06T18:53:46.472Z,4.91
2023-03-06T18:56:20.664Z,4.90
2023-03-06T18:58:48.063Z,4.88
2023-03-06T19:01:14.901Z,4.89
2023-03-06T19:03:42.200Z,4.89
2023-03-06T19:06:14.819Z,4.89
2023-03-06T19:08:41.892Z,4.89
2023-03-06T19:11:12.435Z,4.89
2023-03-06T19:13:39.283Z,4.88
2023-03-06T19:16:07.433Z,4.87
2023-03-06T19:18:34.798Z,4.87
2023-03-06T19:21:17.037Z,4.86
2023-03-06T19:23:44.709Z,4.85
2023-03-06T19:26:12.313Z,4.84
2023-03-06T19:28:41.333Z,4.84
2023-03-06T19:31:14.793Z,4.84
2023-03-06T19:33:42.388Z,4.84
2023-03-06T19:36:12.248Z,4.84
2023-03-06T19:38:40.222Z,4.85
2023-03-06T19:41:12.937Z,4.85
2023-03-06T19:43:42.043Z,4.86
2023-03-06T19:46:13.132Z,4.86
2023-03-06T19:48:41.519Z,4.85
2023-03-06T19:51:09.153Z,4.83
2023-03-06T19:53:36.088Z,4.81
2023-03-06T19:56:17.507Z,4.78
2023-03-06T19:58:44.313Z,4.75
2023-03-06T20:01:14.789Z,4.70
2023-03-06T20:03:42.441Z,4.65
2023-03-06T20:06:15.704Z,4.62
2023-03-06T20:08:42.953Z,4.59
2023-03-06T20:11:23.433Z,4.53
2023-03-06T20:13:50.396Z,4.52
2023-03-06T20:16:18.059Z,4.51
2023-03-06T20:18:45.023Z,4.47
2023-03-06T20:21:12.394Z,4.44
2023-03-06T20:23:39.417Z,4.42
2023-03-06T20:26:12.298Z,4.39
2023-03-06T20:28:41.632Z,4.35
2023-03-06T20:31:18.295Z,4.32
2023-03-06T20:33:47.849Z,4.29
2023-03-06T20:36:18.781Z,4.27
2023-03-06T20:38:46.558Z,4.25
2023-03-06T20:41:26.390Z,4.21
2023-03-06T20:43:53.948Z,4.17
2023-03-06T20:46:22.528Z,4.14
2023-03-06T20:48:52.142Z,4.11
2023-03-06T20:51:27.260Z,4.10
2023-03-06T20:53:55.302Z,4.08
2023-03-06T20:56:26.849Z,4.06
2023-03-06T20:58:53.595Z,4.04
2023-03-06T21:01:25.162Z,4.02
2023-03-06T21:03:53.418Z,4.03
2023-03-06T21:06:20.594Z,4.04
2023-03-06T21:08:48.217Z,4.04
2023-03-06T21:11:16.380Z,4.05
2023-03-06T21:13:43.344Z,4.05
2023-03-06T21:16:18.262Z,4.05
2023-03-06T21:18:45.606Z,4.03
2023-03-06T21:21:17.563Z,4.02
2023-03-06T21:23:46.303Z,3.99
2023-03-06T21:26:16.315Z,3.96
2023-03-06T21:28:43.676Z,3.94
2023-03-06T21:31:12.937Z,3.93
2023-03-06T21:33:40.457Z,3.93
2023-03-06T21:36:08.549Z,3.93
2023-03-06T21:38:36.021Z,3.95
2023-03-06T21:41:15.439Z,3.97
2023-03-06T21:43:42.610Z,3.98
2023-03-06T21:46:10.613Z,4.00
2023-03-06T21:48:37.738Z,4.03
2023-03-06T21:51:18.358Z,4.05
2023-03-06T21:53:47.510Z,4.07
2023-03-06T21:56:18.149Z,4.10
2023-03-06T21:58:45.400Z,4.12
2023-03-06T22:01:17.803Z,4.13
2023-03-06T22:03:45.023Z,4.15
2023-03-06T22:06:18.559Z,4.17
2023-03-06T22:08:46.476Z,4.16
2023-03-06T22:11:20.214Z,4.16
2023-03-06T22:13:47.727Z,4.18
2023-03-06T22:16:15.870Z,4.18
2023-03-06T22:18:48.019Z,4.20
2023-03-06T22:21:18.062Z,4.22
2023-03-06T22:23:53.380Z,4.23
2023-03-06T22:26:20.560Z,4.23
2023-03-06T22:28:47.371Z,4.24
2023-03-06T22:31:23.242Z,4.21
2023-03-06T22:33:54.577Z,4.20
2023-03-06T22:36:22.641Z,4.20
2023-03-06T22:38:55.500Z,4.19
2023-03-06T22:41:23.052Z,4.18
2023-03-06T22:43:49.803Z,4.18
2023-03-06T22:46:17.706Z,4.17
2023-03-06T22:48:44.584Z,4.16
2023-03-06T22:51:18.071Z,4.15
2023-03-06T22:53:46.509Z,4.14
2023-03-06T22:56:17.327Z,4.14
2023-03-06T22:58:44.895Z,4.16
2023-03-06T23:01:14.575Z,4.18
2023-03-06T23:03:45.124Z,4.19
2023-03-06T23:06:19.671Z,4.19
2023-03-06T23:08:53.565Z,4.19
2023-03-06T23:11:21.741Z,4.20
2023-03-06T23:14:07.505Z,4.21
2023-03-06T23:16:52.805Z,4.22
2023-03-06T23:19:38.384Z,4.22
2023-03-06T23:22:23.760Z,4.23
2023-03-06T23:25:09.429Z,4.23
2023-03-06T23:27:36.247Z,4.23
2023-03-06T23:30:05.537Z,4.23
2023-03-06T23:32:33.019Z,4.23
2023-03-06T23:35:00.407Z,4.24
2023-03-06T23:37:27.144Z,4.23
2023-03-06T23:39:54.282Z,4.24
2023-03-06T23:42:21.991Z,4.25
2023-03-06T23:44:48.831Z,4.27
2023-03-06T23:47:16.675Z,4.28
2023-03-06T23:49:43.451Z,4.30
2023-03-06T23:52:10.236Z,4.33
2023-03-06T23:54:37.424Z,4.35
2023-03-06T23:57:04.253Z,4.37
2023-03-06T23:59:31.156Z,4.40
